createdAt,value
2022-10-18T00:00:59.008Z,102530.42
2022-10-18T00:06:19.665Z,102530.23
2022-10-18T00:08:54.081Z,102529.84
2022-10-18T00:11:26.196Z,102530.91
2022-10-18T00:13:58.668Z,102531.33
2022-10-18T00:16:30.784Z,102525.59
2022-10-18T00:19:03.431Z,102523.81
2022-10-18T00:21:35.528Z,102521.05
2022-10-18T00:24:08.375Z,102517.83
2022-10-18T00:26:40.590Z,102514.77
2022-10-18T00:29:16.982Z,102517.34
2022-10-18T00:31:49.093Z,102511.05
2022-10-18T00:34:21.266Z,102507.87
2022-10-18T00:36:53.545Z,102504.91
2022-10-18T00:39:25.755Z,102502.09
2022-10-18T00:41:57.909Z,102503.88
2022-10-18T00:45:04.793Z,102500.77
2022-10-18T00:47:37.607Z,102502.71
2022-10-18T00:50:11.114Z,102503.40
2022-10-18T00:52:46.163Z,102501.55
2022-10-18T00:55:18.391Z,102497.30
2022-10-18T00:57:50.966Z,102497.48
2022-10-18T01:00:21.732Z,102497.69
2022-10-18T01:02:53.911Z,102499.02
2022-10-18T01:05:26.109Z,102498.73
2022-10-18T01:08:16.270Z,102497.69
2022-10-18T01:10:55.902Z,102493.11
2022-10-18T01:13:37.142Z,102491.77
2022-10-18T01:16:13.561Z,102482.70
2022-10-18T01:18:48.541Z,102481.46
2022-10-18T01:21:31.930Z,102482.54
2022-10-18T01:24:29.797Z,102482.83
2022-10-18T01:27:29.233Z,102477.66
2022-10-18T01:30:32.239Z,102476.71
2022-10-18T01:33:08.785Z,102473.23
2022-10-18T01:35:44.433Z,102472.23
2022-10-18T01:38:18.233Z,102469.94
2022-10-18T01:40:51.395Z,102470.48
2022-10-18T01:43:24.683Z,102464.08
2022-10-18T01:45:58.082Z,102463.42
2022-10-18T01:48:30.516Z,102463.92
2022-10-18T01:51:02.723Z,102465.43
2022-10-18T01:53:36.239Z,102468.27
2022-10-18T01:56:26.833Z,102468.52
2022-10-18T01:59:09.199Z,102466.30
2022-10-18T02:01:49.662Z,102466.35
2022-10-18T02:04:30.027Z,102464.45
2022-10-18T02:07:08.037Z,102467.61
2022-10-18T02:09:46.380Z,102465.91
2022-10-18T02:12:19.321Z,102471.30
2022-10-18T02:14:52.693Z,102475.20
2022-10-18T02:17:26.460Z,102470.17
2022-10-18T02:19:59.931Z,102468.44
2022-10-18T02:22:34.306Z,102467.05
2022-10-18T02:25:10.446Z,102462.05
2022-10-18T02:27:42.952Z,102457.03
2022-10-18T02:30:15.530Z,102457.55
2022-10-18T02:32:51.145Z,102457.63
2022-10-18T02:35:26.320Z,102455.59
2022-10-18T02:38:00.093Z,102455.34
2022-10-18T02:40:32.466Z,102454.23
2022-10-18T02:43:05.292Z,102458.38
2022-10-18T02:45:38.126Z,102458.38
2022-10-18T02:48:10.476Z,102461.17
2022-10-18T02:50:42.686Z,102457.59
2022-10-18T02:53:14.927Z,102459.11
2022-10-18T02:55:47.225Z,102452.55
2022-10-18T02:58:19.288Z,102456.91
2022-10-18T03:00:53.663Z,102460.23
2022-10-18T03:03:25.828Z,102458.75
2022-10-18T03:05:57.959Z,102455.52
2022-10-18T03:08:30.130Z,102455.04
2022-10-18T03:11:02.301Z,102459.12
2022-10-18T03:13:35.106Z,102458.42
2022-10-18T03:16:09.310Z,102461.63
2022-10-18T03:18:41.469Z,102461.77
2022-10-18T03:21:13.695Z,102459.20
2022-10-18T03:23:45.830Z,102455.20
2022-10-18T03:26:17.984Z,102457.00
2022-10-18T03:28:50.214Z,102460.52
2022-10-18T03:31:22.457Z,102458.84
2022-10-18T03:33:54.607Z,102457.23
2022-10-18T03:36:26.721Z,102455.73
2022-10-18T03:38:58.782Z,102452.80
2022-10-18T03:41:31.230Z,102452.99
2022-10-18T03:44:03.476Z,102452.96
2022-10-18T03:46:35.531Z,102455.33
2022-10-18T03:49:07.612Z,102455.87
2022-10-18T03:51:39.718Z,102454.17
2022-10-18T03:54:11.902Z,102456.97
2022-10-18T03:56:44.034Z,102459.03
2022-10-18T03:59:17.171Z,102458.56
2022-10-18T04:01:49.366Z,102457.92
2022-10-18T04:04:21.581Z,102457.91
2022-10-18T04:06:56.272Z,102458.42
2022-10-18T04:09:28.448Z,102457.39
2022-10-18T04:12:00.634Z,102458.69
2022-10-18T04:14:32.905Z,102457.66
2022-10-18T04:17:05.133Z,102453.80
2022-10-18T04:19:37.396Z,102452.31
2022-10-18T04:22:09.513Z,102452.63
2022-10-18T04:24:41.901Z,102448.05
2022-10-18T04:27:14.042Z,102445.64
2022-10-18T04:29:46.278Z,102444.32
2022-10-18T04:32:18.526Z,102444.62
2022-10-18T04:34:50.733Z,102444.19
2022-10-18T04:37:22.961Z,102443.33
2022-10-18T04:39:55.951Z,102442.39
2022-10-18T04:42:28.382Z,102443.06
2022-10-18T04:45:00.607Z,102443.81
2022-10-18T04:47:33.184Z,102445.64
2022-10-18T04:50:06.269Z,102443.21
2022-10-18T04:52:38.639Z,102440.34
2022-10-18T04:55:11.429Z,102442.26
2022-10-18T04:57:43.643Z,102444.77
2022-10-18T05:00:17.212Z,102443.95
2022-10-18T05:02:49.374Z,102447.02
2022-10-18T05:05:21.549Z,102447.21
2022-10-18T05:07:53.671Z,102444.81
2022-10-18T05:10:25.794Z,102442.27
2022-10-18T05:12:57.994Z,102446.21
2022-10-18T05:15:30.466Z,102445.67
2022-10-18T05:18:02.765Z,102441.74
2022-10-18T05:20:34.939Z,102442.82
2022-10-18T05:23:11.055Z,102444.61
2022-10-18T05:25:45.796Z,102442.85
2022-10-18T05:28:47.934Z,102444.80
2022-10-18T05:31:11.572Z,102446.60
2022-10-18T05:33:43.793Z,102451.73
2022-10-18T05:36:16.077Z,102456.87
2022-10-18T05:38:48.625Z,102460.22
2022-10-18T05:41:20.786Z,102459.94
2022-10-18T05:43:53.001Z,102460.41
2022-10-18T05:46:25.344Z,102462.95
2022-10-18T05:48:57.647Z,102460.88
2022-10-18T05:51:29.861Z,102460.40
2022-10-18T05:54:02.074Z,102463.36
2022-10-18T05:56:34.368Z,102464.54
2022-10-18T05:59:10.635Z,102468.58
2022-10-18T06:01:44.053Z,102470.61
2022-10-18T06:04:17.981Z,102475.17
2022-10-18T06:06:50.344Z,102476.71
2022-10-18T06:09:22.581Z,102475.79
2022-10-18T06:11:55.648Z,102474.64
2022-10-18T06:14:29.358Z,102480.11
2022-10-18T06:17:01.642Z,102483.03
2022-10-18T06:19:34.158Z,102482.98
2022-10-18T06:22:06.385Z,102485.02
2022-10-18T06:24:38.543Z,102487.52
2022-10-18T06:27:10.596Z,102488.10
2022-10-18T06:29:42.968Z,102490.80
2022-10-18T06:32:15.196Z,102487.10
2022-10-18T06:34:47.244Z,102487.66
2022-10-18T06:37:19.355Z,102487.50
2022-10-18T06:39:51.622Z,102485.45
2022-10-18T06:42:23.786Z,102484.77
2022-10-18T06:44:55.933Z,102486.73
2022-10-18T06:47:28.129Z,102483.89
2022-10-18T06:50:00.306Z,102481.94
2022-10-18T06:52:32.801Z,102479.54
2022-10-18T06:55:09.186Z,102480.16
2022-10-18T06:57:41.473Z,102478.37
2022-10-18T07:00:15.899Z,102481.60
2022-10-18T07:02:48.026Z,102475.64
2022-10-18T07:05:20.442Z,102475.77
2022-10-18T07:07:55.672Z,102477.46
2022-10-18T07:10:28.634Z,102473.73
2022-10-18T07:13:19.921Z,102476.27
2022-10-18T07:16:03.296Z,102474.91
2022-10-18T07:18:36.041Z,102467.63
2022-10-18T07:21:10.977Z,102473.67
2022-10-18T07:23:44.557Z,102472.05
2022-10-18T07:26:18.257Z,102472.38
2022-10-18T07:28:54.324Z,102470.66
2022-10-18T07:31:27.161Z,102471.30
2022-10-18T07:33:59.688Z,102471.55
2022-10-18T07:36:31.784Z,102460.13
2022-10-18T07:39:03.869Z,102462.06
2022-10-18T07:41:36.404Z,102461.58
2022-10-18T07:44:09.192Z,102459.94
2022-10-18T07:46:41.312Z,102453.61
2022-10-18T07:49:13.518Z,102452.75
2022-10-18T07:51:45.554Z,102453.38
2022-10-18T07:54:17.888Z,102453.39
2022-10-18T07:56:49.949Z,102451.80
2022-10-18T07:59:22.137Z,102449.45
2022-10-18T08:01:54.382Z,102449.19
2022-10-18T08:04:26.590Z,102444.95
2022-10-18T08:06:58.882Z,102446.84
2022-10-18T08:09:31.229Z,102442.77
2022-10-18T08:12:03.320Z,102442.65
2022-10-18T08:14:35.383Z,102437.98
2022-10-18T08:17:07.461Z,102434.49
2022-10-18T08:19:48.243Z,102428.37
2022-10-18T08:22:30.718Z,102427.93
2022-10-18T08:25:02.865Z,102426.04
2022-10-18T08:27:35.365Z,102424.71
2022-10-18T08:30:09.682Z,102421.83
2022-10-18T08:32:41.783Z,102421.52
2022-10-18T08:35:13.890Z,102412.92
2022-10-18T08:37:46.389Z,102412.11
2022-10-18T08:40:18.779Z,102409.44
2022-10-18T08:43:07.225Z,102410.20
2022-10-18T08:45:43.140Z,102407.54
2022-10-18T08:48:25.013Z,102403.67
2022-10-18T08:50:58.481Z,102397.86
2022-10-18T08:53:36.196Z,102395.51
2022-10-18T08:56:15.719Z,102394.35
2022-10-18T08:58:47.995Z,102394.66
2022-10-18T09:01:29.617Z,102394.27
2022-10-18T09:04:26.771Z,102390.13
2022-10-18T09:07:14.066Z,102385.77
2022-10-18T09:09:52.104Z,102378.98
2022-10-18T09:12:43.777Z,102375.38
2022-10-18T09:15:19.787Z,102374.71
2022-10-18T09:18:05.894Z,102367.97
2022-10-18T09:20:53.129Z,102361.42
2022-10-18T09:23:28.978Z,102361.23
2022-10-18T09:26:08.159Z,102356.91
2022-10-18T09:28:46.562Z,102350.90
2022-10-18T09:31:22.962Z,102342.48
2022-10-18T09:33:57.432Z,102337.89
2022-10-18T09:36:35.613Z,102337.33
2022-10-18T09:39:14.974Z,102333.85
2022-10-18T09:41:51.810Z,102326.19
2022-10-18T09:44:25.973Z,102318.30
2022-10-18T09:47:01.647Z,102315.20
2022-10-18T09:49:38.303Z,102311.10
2022-10-18T09:52:18.637Z,102306.77
2022-10-18T09:54:55.553Z,102305.17
2022-10-18T09:57:32.946Z,102305.55
2022-10-18T10:00:07.062Z,102303.02
2022-10-18T10:02:39.320Z,102300.67
2022-10-18T10:05:15.503Z,102297.11
2022-10-18T10:07:50.709Z,102290.73
2022-10-18T10:10:25.481Z,102288.17
2022-10-18T10:13:07.785Z,102275.89
2022-10-18T10:15:42.569Z,102268.77
2022-10-18T10:18:22.447Z,102260.30
2022-10-18T10:20:56.077Z,102259.06
2022-10-18T10:23:30.884Z,102256.63
2022-10-18T10:26:05.476Z,102252.19
2022-10-18T10:28:46.545Z,102247.21
2022-10-18T10:31:29.939Z,102243.81
2022-10-18T10:34:04.322Z,102233.04
2022-10-18T10:36:36.840Z,102230.79
2022-10-18T10:39:12.470Z,102226.30
2022-10-18T10:41:44.649Z,102221.13
2022-10-18T10:44:17.400Z,102217.65
2022-10-18T10:46:51.553Z,102214.05
2022-10-18T10:49:41.621Z,102211.04
2022-10-18T10:52:28.562Z,102209.27
2022-10-18T10:55:17.018Z,102198.46
2022-10-18T10:57:55.642Z,102188.41
2022-10-18T11:00:43.017Z,102180.33
2022-10-18T11:03:28.568Z,102181.74
2022-10-18T11:06:02.475Z,102176.80
2022-10-18T11:08:37.993Z,102171.86
2022-10-18T11:11:20.722Z,102165.55
2022-10-18T11:14:21.012Z,102166.38
2022-10-18T11:16:58.351Z,102158.23
2022-10-18T11:19:38.127Z,102148.95
2022-10-18T11:22:15.333Z,102148.41
2022-10-18T11:24:47.547Z,102145.05
2022-10-18T11:27:24.101Z,102138.45
2022-10-18T11:30:07.888Z,102134.64
2022-10-18T11:32:45.644Z,102125.35
2022-10-18T11:35:34.538Z,102118.77
2022-10-18T11:38:18.347Z,102113.09
2022-10-18T11:41:01.070Z,102107.52
2022-10-18T11:44:00.636Z,102097.47
2022-10-18T11:46:41.280Z,102085.16
2022-10-18T11:49:27.758Z,102081.84
2022-10-18T11:52:09.359Z,102069.92
2022-10-18T11:55:11.193Z,102074.13
2022-10-18T11:57:48.613Z,102067.71
2022-10-18T12:00:30.507Z,102057.95
2022-10-18T12:03:19.956Z,102059.63
2022-10-18T12:05:54.192Z,102053.70
2022-10-18T12:08:30.531Z,102052.27
2022-10-18T12:11:07.754Z,102046.16
2022-10-18T12:13:45.264Z,102045.38
2022-10-18T12:16:18.184Z,102042.95
2022-10-18T12:18:55.681Z,102047.19
2022-10-18T12:21:30.357Z,102040.60
2022-10-18T12:24:06.537Z,102034.79
2022-10-18T12:26:39.049Z,102032.73
2022-10-18T12:29:18.545Z,102029.15
2022-10-18T12:31:53.800Z,102021.49
2022-10-18T12:34:33.647Z,102019.02
2022-10-18T12:37:32.339Z,102015.73
2022-10-18T12:40:14.246Z,102012.10
2022-10-18T12:42:49.957Z,102005.08
2022-10-18T12:45:33.576Z,102003.48
2022-10-18T12:48:08.373Z,102001.85
2022-10-18T12:50:41.766Z,101998.45
2022-10-18T12:53:22.799Z,101997.83
2022-10-18T12:55:55.911Z,101992.56
2022-10-18T12:58:33.565Z,101988.93
2022-10-18T13:01:08.046Z,101987.36
2022-10-18T13:03:56.292Z,101992.56
2022-10-18T13:06:28.783Z,101991.77
2022-10-18T13:09:24.755Z,101990.56
2022-10-18T13:12:01.938Z,101982.83
2022-10-18T13:15:20.639Z,101981.81
2022-10-18T13:17:55.194Z,101972.05
2022-10-18T13:20:32.034Z,101972.86
2022-10-18T13:23:12.031Z,101970.46
2022-10-18T13:25:55.692Z,101965.91
2022-10-18T13:28:35.936Z,101960.96
2022-10-18T13:31:16.083Z,101957.53
2022-10-18T13:33:48.354Z,101951.48
2022-10-18T13:36:29.537Z,101949.27
2022-10-18T13:39:17.510Z,101944.18
2022-10-18T13:42:29.707Z,101935.50
2022-10-18T13:45:32.752Z,101934.94
2022-10-18T13:48:35.573Z,101937.16
2022-10-18T13:51:24.158Z,101931.40
2022-10-18T13:54:02.155Z,101926.84
2022-10-18T13:56:55.372Z,101921.05
2022-10-18T13:59:47.277Z,101919.92
2022-10-18T14:02:51.159Z,101918.36
2022-10-18T14:05:30.747Z,101916.14
2022-10-18T14:08:10.353Z,101909.66
2022-10-18T14:11:01.390Z,101904.81
2022-10-18T14:13:40.321Z,101904.33
2022-10-18T14:16:22.834Z,101900.44
2022-10-18T14:18:56.708Z,101897.35
2022-10-18T14:21:33.734Z,101889.04
2022-10-18T14:24:07.781Z,101884.66
2022-10-18T14:29:21.628Z,101881.16
2022-10-18T14:31:58.142Z,101875.89
2022-10-18T14:34:30.931Z,101870.59
2022-10-18T14:37:03.095Z,101869.99
2022-10-18T14:39:35.262Z,101867.73
2022-10-18T14:42:19.372Z,101865.14
2022-10-18T14:44:54.427Z,101862.79
2022-10-18T14:47:30.264Z,101859.09
2022-10-18T14:50:02.543Z,101858.38
2022-10-18T14:52:35.967Z,101855.35
2022-10-18T14:55:13.926Z,101856.70
2022-10-18T14:57:46.069Z,101853.77
2022-10-18T15:00:25.608Z,101853.53
2022-10-18T15:02:57.771Z,101854.69
2022-10-18T15:05:32.235Z,101852.07
2022-10-18T15:08:04.704Z,101851.47
2022-10-18T15:10:38.175Z,101849.23
2022-10-18T15:13:11.883Z,101849.19
2022-10-18T15:15:44.708Z,101849.65
2022-10-18T15:18:24.399Z,101844.57
2022-10-18T15:21:24.176Z,101843.41
2022-10-18T15:23:56.744Z,101842.44
2022-10-18T15:26:30.907Z,101839.87
2022-10-18T15:29:06.052Z,101836.27
2022-10-18T15:31:40.337Z,101835.39
2022-10-18T15:34:16.449Z,101838.48
2022-10-18T15:36:48.947Z,101840.69
2022-10-18T15:39:23.397Z,101837.36
2022-10-18T15:41:56.657Z,101836.33
2022-10-18T15:44:32.315Z,101836.09
2022-10-18T15:47:21.474Z,101834.39
2022-10-18T15:49:56.913Z,101832.38
2022-10-18T15:52:42.913Z,101828.74
2022-10-18T15:55:49.069Z,101829.03
2022-10-18T15:58:24.260Z,101824.36
2022-10-18T16:00:58.032Z,101828.30
2022-10-18T16:03:32.766Z,101826.41
2022-10-18T16:06:08.097Z,101829.95
2022-10-18T16:08:43.616Z,101827.80
2022-10-18T16:11:19.009Z,101828.25
2022-10-18T16:13:52.179Z,101830.05
2022-10-18T16:16:27.660Z,101832.15
2022-10-18T16:19:00.453Z,101830.14
2022-10-18T16:21:34.359Z,101833.24
2022-10-18T16:24:07.667Z,101832.91
2022-10-18T16:26:40.157Z,101832.30
2022-10-18T16:29:12.006Z,101827.28
2022-10-18T16:31:44.304Z,101824.77
2022-10-18T16:34:16.532Z,101826.27
2022-10-18T16:36:48.792Z,101825.36
2022-10-18T16:39:21.890Z,101821.54
2022-10-18T16:41:54.169Z,101820.39
2022-10-18T16:44:26.230Z,101815.25
2022-10-18T16:46:58.341Z,101814.82
2022-10-18T16:49:30.417Z,101817.84
2022-10-18T16:52:02.626Z,101818.96
2022-10-18T16:54:35.869Z,101816.09
2022-10-18T16:57:08.051Z,101811.84
2022-10-18T16:59:40.322Z,101817.39
2022-10-18T17:02:13.329Z,101814.27
2022-10-18T17:04:45.533Z,101813.02
2022-10-18T17:07:22.642Z,101810.16
2022-10-18T17:09:54.900Z,101807.00
2022-10-18T17:12:27.029Z,101802.91
2022-10-18T17:14:59.233Z,101794.85
2022-10-18T17:17:31.669Z,101792.19
2022-10-18T17:20:04.605Z,101787.23
2022-10-18T17:22:36.744Z,101785.20
2022-10-18T17:25:10.046Z,101784.35
2022-10-18T17:27:42.136Z,101775.84
2022-10-18T17:30:17.955Z,101776.02
2022-10-18T17:32:50.108Z,101771.88
2022-10-18T17:35:23.090Z,101770.86
2022-10-18T17:37:55.503Z,101769.45
2022-10-18T17:40:27.713Z,101770.03
2022-10-18T17:43:00.447Z,101768.98
2022-10-18T17:45:32.619Z,101766.09
2022-10-18T17:48:05.068Z,101774.66
2022-10-18T17:50:37.410Z,101769.31
2022-10-18T17:53:09.325Z,101765.02
2022-10-18T17:55:41.608Z,101763.69
2022-10-18T17:58:13.824Z,101765.70
2022-10-18T18:00:45.995Z,101760.05
2022-10-18T18:03:28.527Z,101756.67
2022-10-18T18:06:01.394Z,101757.06
2022-10-18T18:08:33.672Z,101750.59
2022-10-18T18:11:06.043Z,101748.05
2022-10-18T18:13:38.289Z,101745.00
2022-10-18T18:16:16.216Z,101742.27
2022-10-18T18:18:50.476Z,101736.11
2022-10-18T18:21:23.267Z,101738.37
2022-10-18T18:23:55.716Z,101735.77
2022-10-18T18:26:28.284Z,101728.03
2022-10-18T18:28:58.993Z,101729.34
2022-10-18T18:31:34.518Z,101724.61
2022-10-18T18:34:11.808Z,101726.64
2022-10-18T18:36:44.480Z,101725.80
2022-10-18T18:39:19.261Z,101723.55
2022-10-18T18:41:52.963Z,101717.25
2022-10-18T18:44:25.896Z,101715.60
2022-10-18T18:46:58.857Z,101714.54
2022-10-18T18:49:31.611Z,101710.30
2022-10-18T18:52:04.034Z,101709.44
2022-10-18T18:54:36.380Z,101704.39
2022-10-18T18:57:08.600Z,101701.91
2022-10-18T18:59:40.821Z,101704.29
2022-10-18T19:02:13.945Z,101700.02
2022-10-18T19:04:46.196Z,101696.91
2022-10-18T19:07:18.443Z,101698.16
2022-10-18T19:09:51.066Z,101696.11
2022-10-18T19:12:21.628Z,101692.20
2022-10-18T19:14:55.006Z,101690.43
2022-10-18T19:17:27.557Z,101686.95
2022-10-18T19:20:01.277Z,101688.91
2022-10-18T19:22:33.415Z,101689.15
2022-10-18T19:25:05.965Z,101685.30
2022-10-18T19:27:38.635Z,101679.86
2022-10-18T19:30:12.814Z,101673.77
2022-10-18T19:32:45.123Z,101670.02
2022-10-18T19:35:17.497Z,101666.59
2022-10-18T19:37:49.745Z,101665.95
2022-10-18T19:40:21.926Z,101664.92
2022-10-18T19:42:54.183Z,101656.13
2022-10-18T19:45:26.380Z,101656.37
2022-10-18T19:47:58.519Z,101653.08
2022-10-18T19:50:31.838Z,101652.95
2022-10-18T19:53:04.049Z,101649.62
2022-10-18T19:55:38.456Z,101648.00
2022-10-18T19:58:10.695Z,101650.09
2022-10-18T20:00:42.903Z,101650.11
2022-10-18T20:03:16.270Z,101645.24
2022-10-18T20:05:48.473Z,101640.15
2022-10-18T20:08:20.587Z,101636.64
2022-10-18T20:10:52.955Z,101630.05
2022-10-18T20:13:25.156Z,101628.25
2022-10-18T20:15:57.472Z,101627.02
2022-10-18T20:18:29.725Z,101628.45
2022-10-18T20:21:02.102Z,101623.73
2022-10-18T20:23:34.230Z,101622.35
2022-10-18T20:26:08.632Z,101619.04
2022-10-18T20:28:42.026Z,101619.40
2022-10-18T20:31:17.067Z,101612.74
2022-10-18T20:33:54.285Z,101616.08
2022-10-18T20:36:27.299Z,101612.00
2022-10-18T20:38:59.620Z,101608.42
2022-10-18T20:41:33.849Z,101604.15
2022-10-18T20:44:08.525Z,101603.60
2022-10-18T20:46:41.140Z,101599.57
2022-10-18T20:49:12.266Z,101597.77
2022-10-18T20:51:44.389Z,101596.21
2022-10-18T20:54:16.513Z,101594.81
2022-10-18T20:56:48.635Z,101591.84
2022-10-18T20:59:20.726Z,101592.09
2022-10-18T21:01:52.825Z,101589.83
2022-10-18T21:04:25.047Z,101589.02
2022-10-18T21:06:57.073Z,101589.83
2022-10-18T21:09:29.171Z,101584.82
2022-10-18T21:12:01.297Z,101586.02
2022-10-18T21:14:33.759Z,101580.55
2022-10-18T21:17:05.827Z,101575.64
2022-10-18T21:19:38.180Z,101569.52
2022-10-18T21:22:10.215Z,101565.73
2022-10-18T21:24:42.672Z,101564.48
2022-10-18T21:27:16.933Z,101565.95
2022-10-18T21:29:49.544Z,101560.80
2022-10-18T21:32:19.900Z,101558.37
2022-10-18T21:34:52.078Z,101552.55
2022-10-18T21:37:24.174Z,101551.81
2022-10-18T21:39:56.330Z,101547.25
2022-10-18T21:42:28.440Z,101545.00
2022-10-18T21:45:00.527Z,101545.45
2022-10-18T21:47:32.629Z,101543.04
2022-10-18T21:50:04.921Z,101539.27
2022-10-18T21:52:37.029Z,101532.31
2022-10-18T21:55:10.533Z,101527.70
2022-10-18T21:57:42.836Z,101526.59
2022-10-18T22:00:18.775Z,101523.40
2022-10-18T22:02:50.827Z,101519.65
2022-10-18T22:05:23.134Z,101509.86
2022-10-18T22:07:55.232Z,101506.41
2022-10-18T22:10:27.295Z,101508.71
2022-10-18T22:12:59.719Z,101501.70
2022-10-18T22:15:31.850Z,101502.46
2022-10-18T22:18:03.968Z,101495.67
2022-10-18T22:20:36.086Z,101489.63
2022-10-18T22:23:08.258Z,101488.15
2022-10-18T22:25:40.342Z,101479.95
2022-10-18T22:28:12.485Z,101476.45
2022-10-18T22:30:44.729Z,101472.00
2022-10-18T22:33:16.829Z,101465.65
2022-10-18T22:35:52.954Z,101466.38
2022-10-18T22:38:25.064Z,101457.41
2022-10-18T22:40:57.186Z,101455.60
2022-10-18T22:43:31.862Z,101453.04
2022-10-18T22:46:04.786Z,101446.13
2022-10-18T22:48:37.427Z,101441.80
2022-10-18T22:51:07.971Z,101438.55
2022-10-18T22:53:41.091Z,101434.70
2022-10-18T22:56:16.778Z,101430.38
2022-10-18T22:58:49.489Z,101427.06
2022-10-18T23:01:23.468Z,101424.55
2022-10-18T23:03:59.395Z,101422.54
2022-10-18T23:06:32.963Z,101417.06
2022-10-18T23:09:07.859Z,101413.32
2022-10-18T23:11:40.356Z,101415.04
2022-10-18T23:14:13.315Z,101413.16
2022-10-18T23:16:45.865Z,101411.00
2022-10-18T23:19:19.120Z,101409.48
2022-10-18T23:21:51.257Z,101408.08
2022-10-18T23:24:23.335Z,101403.64
2022-10-18T23:26:55.572Z,101401.29
2022-10-18T23:29:27.789Z,101397.90
2022-10-18T23:31:59.900Z,101396.54
2022-10-18T23:34:31.998Z,101391.45
2022-10-18T23:37:04.118Z,101388.98
2022-10-18T23:39:36.205Z,101384.70
2022-10-18T23:42:08.805Z,101384.11
2022-10-18T23:44:40.909Z,101382.17
2022-10-18T23:47:12.993Z,101382.52
2022-10-18T23:49:45.558Z,101381.16
2022-10-18T23:52:17.681Z,101381.15
2022-10-18T23:54:50.230Z,101379.91
2022-10-18T23:57:22.365Z,101376.62
2022-10-18T23:59:54.501Z,101375.31
